createdAt,value
2023-05-13T00:00:38.291Z,15.43
2023-05-13T00:03:19.185Z,17.50
2023-05-13T00:05:56.729Z,14.30
2023-05-13T00:08:38.135Z,14.50
2023-05-13T00:11:19.116Z,13.63
2023-05-13T00:14:00.503Z,14.13
2023-05-13T00:16:30.410Z,14.90
2023-05-13T00:18:59.872Z,14.43
2023-05-13T00:21:30.101Z,14.47
2023-05-13T00:24:01.149Z,13.90
2023-05-13T00:26:45.348Z,14.07
2023-05-13T00:29:24.434Z,13.70
2023-05-13T00:32:05.146Z,16.67
2023-05-13T00:34:52.967Z,13.77
2023-05-13T00:37:30.164Z,16.50
2023-05-13T00:40:20.759Z,16.07
2023-05-13T00:42:55.732Z,14.83
2023-05-13T00:45:25.043Z,16.13
2023-05-13T00:47:54.925Z,15.90
2023-05-13T00:50:32.362Z,14.40
2023-05-13T00:53:14.749Z,14.03
2023-05-13T00:55:57.282Z,15.83
2023-05-13T00:58:41.668Z,14.87
2023-05-13T01:01:31.500Z,16.20
2023-05-13T01:04:18.650Z,14.90
2023-05-13T01:07:05.285Z,19.47
2023-05-13T01:09:57.464Z,14.77
2023-05-13T01:12:47.366Z,14.27
2023-05-13T01:15:33.613Z,14.70
2023-05-13T01:18:24.356Z,15.17
2023-05-13T01:21:07.358Z,15.17
2023-05-13T01:23:50.888Z,14.57
2023-05-13T01:26:32.868Z,14.70
2023-05-13T01:29:15.483Z,15.53
2023-05-13T01:31:52.676Z,14.10
2023-05-13T01:34:32.801Z,13.60
2023-05-13T01:37:16.017Z,16.80
2023-05-13T01:40:05.816Z,14.03
2023-05-13T01:42:45.036Z,14.33
2023-05-13T01:45:25.954Z,17.87
2023-05-13T01:48:04.364Z,15.30
2023-05-13T01:50:53.385Z,17.47
2023-05-13T01:53:31.825Z,17.20
2023-05-13T01:56:11.567Z,14.63
2023-05-13T01:58:48.293Z,14.23
2023-05-13T02:01:26.881Z,15.17
2023-05-13T02:04:08.244Z,15.67
2023-05-13T02:06:45.178Z,15.67
2023-05-13T02:09:21.629Z,16.00
2023-05-13T02:12:02.024Z,15.97
2023-05-13T02:14:50.418Z,15.70
2023-05-13T02:17:29.686Z,14.90
2023-05-13T02:20:09.321Z,13.53
2023-05-13T02:22:49.861Z,15.13
2023-05-13T02:25:31.132Z,14.23
2023-05-13T02:28:07.256Z,17.10
2023-05-13T02:30:38.254Z,14.87
2023-05-13T02:33:16.934Z,15.23
2023-05-13T02:36:04.577Z,15.33
2023-05-13T02:38:46.032Z,14.80
2023-05-13T02:41:32.753Z,17.77
2023-05-13T02:44:12.870Z,16.27
2023-05-13T02:46:54.809Z,15.40
2023-05-13T02:49:34.154Z,14.37
2023-05-13T02:52:08.627Z,16.07
2023-05-13T02:54:48.843Z,17.60
2023-05-13T02:57:26.959Z,14.83
2023-05-13T03:00:09.597Z,14.33
2023-05-13T03:02:47.616Z,15.37
2023-05-13T03:05:21.760Z,15.23
2023-05-13T03:07:59.914Z,16.57
2023-05-13T03:10:39.564Z,14.17
2023-05-13T03:13:13.708Z,15.47
2023-05-13T03:15:45.274Z,15.17
2023-05-13T03:18:21.103Z,14.63
2023-05-13T03:21:03.069Z,16.80
2023-05-13T03:23:49.849Z,15.33
2023-05-13T03:26:32.071Z,14.27
2023-05-13T03:29:15.173Z,14.07
2023-05-13T03:31:57.589Z,15.63
2023-05-13T03:34:33.270Z,17.30
2023-05-13T03:37:03.446Z,15.63
2023-05-13T03:39:41.912Z,14.10
2023-05-13T03:42:23.502Z,14.80
2023-05-13T03:45:01.646Z,18.27
2023-05-13T03:47:45.685Z,13.97
2023-05-13T03:50:29.012Z,16.63
2023-05-13T03:53:01.916Z,15.57
2023-05-13T03:55:31.385Z,15.90
2023-05-13T03:58:01.278Z,15.70
2023-05-13T04:00:33.794Z,17.47
2023-05-13T04:03:17.327Z,14.70
2023-05-13T04:05:56.799Z,14.67
2023-05-13T04:08:36.114Z,14.23
2023-05-13T04:11:13.142Z,16.13
2023-05-13T04:13:46.869Z,16.57
2023-05-13T04:16:17.511Z,15.90
2023-05-13T04:18:57.905Z,14.70
2023-05-13T04:21:34.158Z,15.93
2023-05-13T04:24:08.189Z,13.30
2023-05-13T04:26:42.928Z,14.10
2023-05-13T04:29:18.734Z,18.13
2023-05-13T04:32:01.861Z,14.37
2023-05-13T04:34:45.068Z,14.50
2023-05-13T04:37:26.939Z,16.07
2023-05-13T04:40:09.445Z,15.33
2023-05-13T04:42:54.664Z,14.73
2023-05-13T04:45:39.022Z,15.67
2023-05-13T04:48:16.146Z,16.23
2023-05-13T04:50:53.492Z,15.00
2023-05-13T04:53:28.978Z,14.83
2023-05-13T04:56:07.988Z,14.10
2023-05-13T04:58:39.346Z,14.40
2023-05-13T05:01:17.387Z,16.37
2023-05-13T05:03:56.948Z,18.70
2023-05-13T05:06:36.940Z,17.47
2023-05-13T05:09:10.697Z,15.00
2023-05-13T05:11:51.166Z,14.43
2023-05-13T05:14:26.837Z,15.17
2023-05-13T05:17:05.789Z,15.40
2023-05-13T05:19:46.538Z,17.60
2023-05-13T05:22:23.857Z,16.07
2023-05-13T05:25:03.570Z,16.13
2023-05-13T05:27:40.757Z,15.83
2023-05-13T05:30:28.331Z,16.70
2023-05-13T05:33:14.423Z,15.03
2023-05-13T05:35:47.892Z,15.20
2023-05-13T05:38:30.907Z,14.77
2023-05-13T05:41:11.242Z,17.77
2023-05-13T05:43:44.518Z,16.50
2023-05-13T05:46:23.797Z,17.97
2023-05-13T05:49:08.140Z,14.30
2023-05-13T05:51:46.369Z,15.43
2023-05-13T05:54:20.420Z,17.53
2023-05-13T05:56:51.551Z,17.93
2023-05-13T05:59:27.263Z,16.07
2023-05-13T06:02:08.811Z,17.30
2023-05-13T06:04:49.764Z,18.97
2023-05-13T06:07:31.959Z,18.03
2023-05-13T06:10:08.649Z,16.20
2023-05-13T06:12:46.030Z,15.87
2023-05-13T06:15:27.477Z,15.30
2023-05-13T06:18:10.903Z,15.73
2023-05-13T06:20:55.054Z,16.23
2023-05-13T06:23:33.597Z,16.40
2023-05-13T06:26:19.350Z,17.13
2023-05-13T06:28:56.373Z,14.83
2023-05-13T06:31:40.185Z,16.10
2023-05-13T06:34:16.692Z,17.17
2023-05-13T06:36:55.711Z,15.70
2023-05-13T06:39:31.701Z,14.40
2023-05-13T06:42:14.118Z,16.90
2023-05-13T06:44:59.678Z,16.43
2023-05-13T06:47:45.815Z,16.80
2023-05-13T06:50:32.234Z,17.30
2023-05-13T06:53:12.577Z,16.80
2023-05-13T06:55:49.079Z,15.63
2023-05-13T06:58:25.277Z,13.00
2023-05-13T07:01:09.061Z,13.60
2023-05-13T07:03:41.891Z,12.33
2023-05-13T07:06:19.237Z,13.00
2023-05-13T07:08:53.705Z,15.87
2023-05-13T07:11:29.082Z,11.57
2023-05-13T07:14:06.085Z,13.67
2023-05-13T07:16:39.386Z,12.87
2023-05-13T07:19:19.524Z,12.33
2023-05-13T07:21:57.063Z,15.77
2023-05-13T07:24:29.145Z,10.73
2023-05-13T07:26:57.764Z,11.03
2023-05-13T07:29:34.362Z,12.57
2023-05-13T07:32:11.798Z,10.97
2023-05-13T07:34:49.831Z,12.00
2023-05-13T07:37:28.231Z,11.47
2023-05-13T07:40:11.077Z,10.87
2023-05-13T07:42:58.858Z,10.13
2023-05-13T07:45:34.291Z,14.23
2023-05-13T07:48:17.774Z,11.80
2023-05-13T07:50:58.731Z,13.23
2023-05-13T07:53:35.657Z,13.13
2023-05-13T07:56:11.352Z,16.07
2023-05-13T07:58:49.301Z,14.67
2023-05-13T08:01:25.617Z,10.83
2023-05-13T08:04:08.441Z,10.13
2023-05-13T08:06:48.189Z,12.53
2023-05-13T08:09:31.988Z,11.03
2023-05-13T08:12:11.121Z,9.53
2023-05-13T08:14:49.980Z,10.30
2023-05-13T08:17:34.569Z,7.97
2023-05-13T08:20:15.289Z,8.67
2023-05-13T08:23:01.207Z,9.40
2023-05-13T08:25:46.792Z,7.50
2023-05-13T08:28:30.122Z,8.73
2023-05-13T08:31:08.794Z,8.73
2023-05-13T08:33:45.976Z,8.10
2023-05-13T08:36:25.787Z,7.90
2023-05-13T08:39:02.645Z,9.17
2023-05-13T08:41:46.385Z,9.00
2023-05-13T08:44:28.892Z,8.70
2023-05-13T08:47:10.821Z,8.23
2023-05-13T08:49:49.375Z,8.43
2023-05-13T08:52:32.866Z,9.00
2023-05-13T08:55:09.983Z,7.40
2023-05-13T08:57:52.767Z,8.93
2023-05-13T09:00:35.632Z,8.73
2023-05-13T09:03:18.333Z,8.10
2023-05-13T09:06:03.880Z,9.23
2023-05-13T09:08:39.074Z,11.23
2023-05-13T09:11:13.944Z,7.13
2023-05-13T09:13:45.525Z,6.43
2023-05-13T09:16:19.041Z,7.77
2023-05-13T09:18:49.543Z,11.33
2023-05-13T09:21:35.547Z,10.70
2023-05-13T09:24:21.758Z,8.17
2023-05-13T09:27:02.725Z,6.30
2023-05-13T09:29:41.653Z,5.30
2023-05-13T09:32:26.557Z,6.90
2023-05-13T09:35:17.737Z,7.17
2023-05-13T09:37:55.516Z,8.27
2023-05-13T09:40:37.643Z,7.70
2023-05-13T09:43:21.267Z,6.40
2023-05-13T09:46:05.329Z,8.17
2023-05-13T09:48:44.706Z,5.50
2023-05-13T09:51:18.079Z,7.07
2023-05-13T09:54:06.127Z,8.47
2023-05-13T09:56:38.935Z,7.60
2023-05-13T09:59:13.456Z,7.23
2023-05-13T10:01:47.880Z,5.77
2023-05-13T10:04:16.733Z,7.07
2023-05-13T10:06:58.908Z,5.57
2023-05-13T10:09:36.812Z,4.80
2023-05-13T10:12:08.857Z,8.83
2023-05-13T10:14:41.336Z,7.40
2023-05-13T10:17:10.729Z,5.40
2023-05-13T10:19:51.269Z,8.20
2023-05-13T10:22:35.938Z,5.17
2023-05-13T10:25:17.772Z,6.30
2023-05-13T10:27:58.592Z,6.20
2023-05-13T10:30:35.911Z,8.43
2023-05-13T10:33:10.723Z,7.13
2023-05-13T10:36:00.610Z,7.13
2023-05-13T10:38:59.735Z,5.97
2023-05-13T10:42:21.343Z,5.87
2023-05-13T10:44:59.714Z,6.80
2023-05-13T10:47:44.420Z,7.37
2023-05-13T10:50:25.730Z,7.03
2023-05-13T10:53:00.647Z,7.93
2023-05-13T10:55:47.600Z,6.40
2023-05-13T10:58:38.123Z,5.87
2023-05-13T11:01:29.603Z,5.53
2023-05-13T11:04:18.159Z,11.10
2023-05-13T11:07:16.536Z,6.17
2023-05-13T11:10:00.694Z,5.63
2023-05-13T11:12:38.270Z,6.60
2023-05-13T11:15:24.283Z,7.13
2023-05-13T11:18:05.088Z,5.97
2023-05-13T11:20:51.495Z,7.23
2023-05-13T11:23:30.381Z,5.07
2023-05-13T11:26:16.897Z,5.23
2023-05-13T11:29:06.480Z,8.83
2023-05-13T11:31:48.716Z,8.63
2023-05-13T11:34:32.100Z,5.37
2023-05-13T11:37:19.784Z,4.80
2023-05-13T11:39:58.811Z,7.73
2023-05-13T11:42:40.698Z,6.10
2023-05-13T11:45:25.422Z,8.70
2023-05-13T11:48:19.118Z,7.43
2023-05-13T11:50:58.616Z,6.23
2023-05-13T11:53:26.951Z,5.37
2023-05-13T11:56:12.879Z,4.57
2023-05-13T11:58:54.304Z,9.57
2023-05-13T12:01:32.704Z,4.93
2023-05-13T12:04:15.883Z,8.17
2023-05-13T12:06:56.673Z,4.40
2023-05-13T12:09:35.482Z,5.93
2023-05-13T12:12:16.392Z,6.63
2023-05-13T12:14:56.886Z,4.53
2023-05-13T12:17:31.631Z,5.60
2023-05-13T12:20:15.502Z,5.00
2023-05-13T12:22:54.770Z,5.93
2023-05-13T12:25:47.697Z,5.93
2023-05-13T12:28:26.033Z,6.83
2023-05-13T12:31:06.385Z,5.37
2023-05-13T12:33:46.869Z,4.20
2023-05-13T12:36:25.640Z,5.87
2023-05-13T12:39:21.405Z,5.70
2023-05-13T12:42:02.813Z,5.37
2023-05-13T12:44:46.181Z,4.77
2023-05-13T12:47:23.108Z,6.00
2023-05-13T12:49:59.388Z,5.57
2023-05-13T12:52:33.263Z,7.90
2023-05-13T12:55:03.188Z,6.23
2023-05-13T12:57:43.319Z,7.03
2023-05-13T13:00:25.261Z,4.50
2023-05-13T13:03:03.526Z,4.63
2023-05-13T13:05:41.489Z,4.63
2023-05-13T13:08:22.781Z,5.50
2023-05-13T13:11:01.246Z,5.90
2023-05-13T13:13:42.621Z,5.90
2023-05-13T13:16:16.211Z,5.67
2023-05-13T13:18:47.549Z,5.53
2023-05-13T13:21:23.967Z,8.03
2023-05-13T13:24:08.906Z,6.03
2023-05-13T13:26:49.878Z,5.47
2023-05-13T13:29:32.359Z,8.40
2023-05-13T13:32:07.305Z,7.03
2023-05-13T13:34:48.108Z,5.00
2023-05-13T13:37:25.816Z,5.60
2023-05-13T13:40:07.541Z,5.43
2023-05-13T13:42:46.502Z,6.00
2023-05-13T13:45:19.024Z,5.23
2023-05-13T13:47:58.518Z,4.30
2023-05-13T13:50:34.499Z,7.47
2023-05-13T13:53:11.002Z,6.63
2023-05-13T13:55:51.068Z,5.13
2023-05-13T13:58:29.584Z,7.07
2023-05-13T14:01:12.419Z,7.43
2023-05-13T14:03:51.438Z,4.40
2023-05-13T14:06:21.815Z,4.40
2023-05-13T14:08:57.587Z,4.57
2023-05-13T14:11:36.420Z,6.23
2023-05-13T14:14:16.349Z,4.37
2023-05-13T14:16:50.195Z,7.33
2023-05-13T14:19:29.397Z,6.03
2023-05-13T14:22:13.048Z,6.13
2023-05-13T14:24:49.125Z,5.43
2023-05-13T14:27:19.224Z,5.13
2023-05-13T14:29:52.545Z,5.37
2023-05-13T14:32:20.765Z,5.30
2023-05-13T14:34:50.302Z,4.73
2023-05-13T14:37:25.935Z,5.33
2023-05-13T14:40:02.783Z,6.47
2023-05-13T14:42:49.306Z,5.53
2023-05-13T14:45:33.292Z,4.20
2023-05-13T14:48:17.190Z,8.47
2023-05-13T14:50:51.021Z,9.00
2023-05-13T14:53:22.824Z,5.97
2023-05-13T14:55:57.325Z,7.43
2023-05-13T14:58:37.534Z,5.03
2023-05-13T15:01:10.813Z,7.37
2023-05-13T15:03:51.650Z,8.37
2023-05-13T15:06:32.852Z,6.20
2023-05-13T15:09:13.835Z,5.10
2023-05-13T15:11:55.982Z,5.27
2023-05-13T15:14:37.501Z,6.57
2023-05-13T15:17:21.138Z,9.47
2023-05-13T15:19:54.687Z,7.10
2023-05-13T15:22:24.543Z,5.17
2023-05-13T15:25:06.961Z,10.53
2023-05-13T15:27:42.292Z,5.87
2023-05-13T15:30:24.333Z,5.40
2023-05-13T15:32:58.529Z,7.47
2023-05-13T15:35:37.257Z,7.27
2023-05-13T15:38:18.044Z,4.10
2023-05-13T15:40:57.316Z,9.90
2023-05-13T15:43:41.252Z,7.33
2023-05-13T15:46:23.930Z,7.53
2023-05-13T15:49:02.218Z,8.27
2023-05-13T15:51:43.106Z,13.67
2023-05-13T15:54:21.339Z,4.47
2023-05-13T15:57:01.214Z,8.90
2023-05-13T15:59:41.501Z,7.20
2023-05-13T16:02:23.467Z,6.67
2023-05-13T16:05:03.268Z,8.37
2023-05-13T16:07:42.369Z,7.37
2023-05-13T16:10:17.712Z,4.93
2023-05-13T16:12:58.253Z,4.23
2023-05-13T16:15:31.835Z,4.30
2023-05-13T16:18:12.950Z,3.87
2023-05-13T16:20:56.816Z,4.43
2023-05-13T16:23:33.708Z,3.93
2023-05-13T16:26:09.931Z,5.90
2023-05-13T16:28:51.078Z,5.63
2023-05-13T16:31:31.825Z,5.47
2023-05-13T16:34:15.377Z,6.13
2023-05-13T16:36:55.872Z,6.60
2023-05-13T16:39:39.919Z,7.13
2023-05-13T16:42:25.653Z,5.60
2023-05-13T16:44:58.941Z,7.07
2023-05-13T16:47:29.815Z,4.57
2023-05-13T16:50:10.652Z,5.60
2023-05-13T16:52:49.962Z,3.93
2023-05-13T16:55:31.129Z,4.10
2023-05-13T16:58:14.620Z,6.77
2023-05-13T17:00:50.450Z,4.60
2023-05-13T17:03:26.266Z,6.13
2023-05-13T17:06:08.473Z,3.40
2023-05-13T17:08:49.447Z,4.40
2023-05-13T17:11:24.278Z,6.10
2023-05-13T17:13:55.236Z,5.47
2023-05-13T17:16:31.268Z,6.37
2023-05-13T17:19:08.065Z,6.10
2023-05-13T17:21:44.288Z,6.47
2023-05-13T17:24:19.127Z,5.57
2023-05-13T17:26:57.773Z,4.27
2023-05-13T17:29:39.526Z,4.43
2023-05-13T17:32:18.578Z,3.60
2023-05-13T17:34:57.457Z,5.17
2023-05-13T17:37:41.782Z,6.10
2023-05-13T17:40:15.695Z,7.00
2023-05-13T17:43:02.967Z,6.47
2023-05-13T17:45:49.484Z,9.40
2023-05-13T17:48:29.228Z,7.80
2023-05-13T17:51:07.663Z,7.43
2023-05-13T17:53:48.437Z,7.00
2023-05-13T17:56:29.250Z,6.93
2023-05-13T17:59:08.137Z,5.47
2023-05-13T18:01:49.749Z,7.60
2023-05-13T18:04:32.626Z,6.47
2023-05-13T18:07:12.266Z,6.63
2023-05-13T18:09:51.031Z,8.10
2023-05-13T18:12:30.960Z,9.00
2023-05-13T18:15:12.067Z,7.50
2023-05-13T18:17:56.648Z,9.33
2023-05-13T18:20:35.776Z,7.23
2023-05-13T18:23:13.795Z,6.07
2023-05-13T18:25:56.305Z,10.67
2023-05-13T18:28:37.469Z,8.77
2023-05-13T18:31:15.799Z,6.67
2023-05-13T18:33:53.711Z,8.00
2023-05-13T18:36:32.938Z,10.63
2023-05-13T18:39:15.664Z,8.23
2023-05-13T18:41:50.546Z,8.87
2023-05-13T18:44:21.523Z,6.47
2023-05-13T18:47:02.250Z,5.63
2023-05-13T18:49:42.249Z,5.47
2023-05-13T18:52:19.479Z,8.50
2023-05-13T18:55:05.856Z,6.93
2023-05-13T18:57:51.951Z,8.87
2023-05-13T19:00:29.477Z,6.23
2023-05-13T19:03:07.755Z,9.03
2023-05-13T19:05:42.025Z,7.37
2023-05-13T19:08:10.186Z,5.70
2023-05-13T19:10:40.696Z,5.67
2023-05-13T19:13:22.262Z,8.80
2023-05-13T19:16:07.585Z,7.00
2023-05-13T19:18:41.897Z,7.70
2023-05-13T19:21:26.106Z,7.50
2023-05-13T19:24:06.384Z,6.03
2023-05-13T19:26:47.076Z,9.37
2023-05-13T19:29:32.333Z,8.93
2023-05-13T19:32:11.955Z,8.53
2023-05-13T19:34:43.360Z,10.40
2023-05-13T19:37:29.037Z,7.03
2023-05-13T19:40:02.561Z,7.77
2023-05-13T19:42:44.169Z,7.37
2023-05-13T19:45:21.742Z,9.10
2023-05-13T19:48:01.438Z,8.23
2023-05-13T19:50:40.065Z,7.23
2023-05-13T19:53:16.377Z,8.50
2023-05-13T19:55:59.116Z,6.87
2023-05-13T19:58:33.565Z,7.17
2023-05-13T20:01:14.928Z,6.93
2023-05-13T20:03:55.364Z,8.43
2023-05-13T20:06:36.572Z,6.60
2023-05-13T20:09:11.969Z,7.60
2023-05-13T20:11:43.236Z,7.40
2023-05-13T20:14:27.694Z,8.80
2023-05-13T20:17:08.429Z,9.03
2023-05-13T20:19:49.210Z,9.73
2023-05-13T20:22:32.987Z,8.57
2023-05-13T20:25:09.174Z,7.90
2023-05-13T20:27:40.009Z,6.80
2023-05-13T20:30:16.512Z,9.03
2023-05-13T20:32:55.630Z,7.80
2023-05-13T20:35:36.840Z,9.80
2023-05-13T20:38:21.982Z,9.87
2023-05-13T20:41:05.357Z,8.63
2023-05-13T20:43:45.029Z,8.77
2023-05-13T20:46:24.476Z,8.90
2023-05-13T20:49:04.317Z,9.67
2023-05-13T20:51:46.603Z,10.37
2023-05-13T20:54:29.076Z,8.93
2023-05-13T20:57:07.592Z,8.63
2023-05-13T20:59:45.377Z,9.97
2023-05-13T21:02:29.496Z,12.37
2023-05-13T21:05:00.797Z,10.60
2023-05-13T21:07:33.019Z,13.43
2023-05-13T21:10:08.501Z,9.57
2023-05-13T21:12:48.022Z,10.37
2023-05-13T21:15:25.704Z,13.63
2023-05-13T21:18:03.430Z,9.50
2023-05-13T21:20:47.377Z,12.10
2023-05-13T21:23:29.141Z,12.67
2023-05-13T21:26:06.263Z,10.77
2023-05-13T21:28:44.270Z,11.90
2023-05-13T21:31:25.131Z,10.10
2023-05-13T21:34:12.862Z,11.50
2023-05-13T21:36:57.468Z,10.37
2023-05-13T21:39:34.116Z,11.40
2023-05-13T21:42:17.291Z,11.77
2023-05-13T21:44:53.323Z,10.17
2023-05-13T21:47:26.250Z,11.23
2023-05-13T21:50:03.649Z,11.60
2023-05-13T21:52:38.389Z,9.47
2023-05-13T21:55:26.547Z,12.27
2023-05-13T21:58:06.609Z,10.73
2023-05-13T22:00:41.897Z,11.50
2023-05-13T22:03:29.660Z,10.17
2023-05-13T22:06:17.524Z,11.03
2023-05-13T22:09:02.120Z,14.37
2023-05-13T22:11:49.869Z,9.33
2023-05-13T22:14:37.544Z,11.73
2023-05-13T22:17:25.364Z,17.00
2023-05-13T22:20:11.592Z,11.23
2023-05-13T22:22:58.420Z,10.87
2023-05-13T22:25:47.546Z,12.90
2023-05-13T22:28:35.282Z,11.63
2023-05-13T22:31:23.087Z,10.53
2023-05-13T22:34:10.871Z,12.23
2023-05-13T22:36:58.609Z,14.10
2023-05-13T22:39:32.097Z,14.70
2023-05-13T22:42:07.918Z,14.50
2023-05-13T22:44:55.901Z,12.27
2023-05-13T22:47:43.846Z,13.97
2023-05-13T22:50:31.583Z,11.83
2023-05-13T22:53:10.274Z,13.97
2023-05-13T22:55:58.092Z,14.77
2023-05-13T22:58:43.611Z,13.67
2023-05-13T23:01:27.873Z,13.97
2023-05-13T23:04:07.693Z,10.83
2023-05-13T23:06:47.698Z,12.80
2023-05-13T23:09:20.764Z,16.27
2023-05-13T23:11:56.734Z,15.10
2023-05-13T23:14:35.600Z,14.00
2023-05-13T23:17:14.464Z,14.17
2023-05-13T23:19:57.191Z,14.73
2023-05-13T23:22:38.374Z,13.90
2023-05-13T23:25:15.181Z,12.57
2023-05-13T23:27:53.612Z,10.47
2023-05-13T23:30:33.224Z,13.33
2023-05-13T23:33:11.241Z,12.33
2023-05-13T23:35:54.111Z,11.60
2023-05-13T23:38:29.603Z,10.40
2023-05-13T23:41:11.220Z,12.83
2023-05-13T23:43:46.073Z,12.03
2023-05-13T23:46:22.335Z,10.07
2023-05-13T23:49:01.457Z,11.93
2023-05-13T23:51:41.969Z,10.70
2023-05-13T23:54:23.766Z,10.10
2023-05-13T23:56:59.319Z,12.13
2023-05-13T23:59:46.843Z,11.07
